createdAt,value
2018-01-14T00:01:57.051Z,21.27
2018-01-14T00:04:24.587Z,18.13
2018-01-14T00:06:52.155Z,20.77
2018-01-14T00:09:20.497Z,18.03
2018-01-14T00:11:48.064Z,18.87
2018-01-14T00:14:16.629Z,17.77
2018-01-14T00:16:44.936Z,17.43
2018-01-14T00:19:12.516Z,16.27
2018-01-14T00:21:40.216Z,17.90
2018-01-14T00:24:10.331Z,20.57
2018-01-14T00:26:37.846Z,17.13
2018-01-14T00:29:06.220Z,17.77
2018-01-14T00:31:33.754Z,18.40
2018-01-14T00:34:01.326Z,19.20
2018-01-14T00:36:28.900Z,22.53
2018-01-14T00:38:56.472Z,18.10
2018-01-14T00:41:24.049Z,20.13
2018-01-14T00:43:51.923Z,16.37
2018-01-14T00:46:19.471Z,17.17
2018-01-14T00:48:47.021Z,17.63
2018-01-14T00:51:14.586Z,16.60
2018-01-14T00:53:42.883Z,15.27
2018-01-14T00:56:10.390Z,19.00
2018-01-14T00:58:38.140Z,19.97
2018-01-14T01:01:06.487Z,22.17
2018-01-14T01:03:34.064Z,20.23
2018-01-14T01:06:01.638Z,18.10
2018-01-14T01:08:29.213Z,20.33
2018-01-14T01:10:56.792Z,18.50
2018-01-14T01:13:24.400Z,17.63
2018-01-14T01:15:52.035Z,18.57
2018-01-14T01:18:19.577Z,19.73
2018-01-14T01:20:47.135Z,20.07
2018-01-14T01:23:16.212Z,16.63
2018-01-14T01:25:43.749Z,17.67
2018-01-14T01:28:11.581Z,23.33
2018-01-14T01:30:39.151Z,22.30
2018-01-14T01:33:06.725Z,21.80
2018-01-14T01:35:35.288Z,17.53
2018-01-14T01:38:03.603Z,18.90
2018-01-14T01:40:31.172Z,18.10
2018-01-14T01:42:58.944Z,18.03
2018-01-14T01:45:27.252Z,17.63
2018-01-14T01:47:54.832Z,17.30
2018-01-14T01:50:22.391Z,18.77
2018-01-14T01:52:50.692Z,17.53
2018-01-14T01:55:18.284Z,21.43
2018-01-14T01:57:46.827Z,16.40
2018-01-14T02:00:14.370Z,16.23
2018-01-14T02:02:42.004Z,17.37
2018-01-14T02:05:09.798Z,15.53
2018-01-14T02:07:38.141Z,18.67
2018-01-14T02:10:05.671Z,17.20
2018-01-14T02:12:33.239Z,17.73
2018-01-14T02:15:00.819Z,14.17
2018-01-14T02:17:28.398Z,18.23
2018-01-14T02:19:55.955Z,14.93
2018-01-14T02:22:23.580Z,16.83
2018-01-14T02:24:51.203Z,15.57
2018-01-14T02:27:19.028Z,18.77
2018-01-14T02:29:47.364Z,16.13
2018-01-14T02:32:14.938Z,16.50
2018-01-14T02:34:43.459Z,20.03
2018-01-14T02:37:11.047Z,19.53
2018-01-14T02:39:39.351Z,19.90
2018-01-14T02:42:06.879Z,22.73
2018-01-14T02:44:34.445Z,18.87
2018-01-14T02:47:01.983Z,18.63
2018-01-14T02:49:29.612Z,19.47
2018-01-14T02:51:57.189Z,18.10
2018-01-14T02:54:24.701Z,17.03
2018-01-14T02:56:52.264Z,18.67
2018-01-14T02:59:19.845Z,18.50
2018-01-14T03:01:48.190Z,18.93
2018-01-14T03:04:16.571Z,21.63
2018-01-14T03:06:44.879Z,19.37
2018-01-14T03:09:12.422Z,20.73
2018-01-14T03:11:39.997Z,18.00
2018-01-14T03:14:07.572Z,22.30
2018-01-14T03:16:35.909Z,16.97
2018-01-14T03:19:03.560Z,19.03
2018-01-14T03:21:31.106Z,16.37
2018-01-14T03:23:58.618Z,19.83
2018-01-14T03:26:26.525Z,18.43
2018-01-14T03:28:54.928Z,18.77
2018-01-14T03:31:22.471Z,17.83
2018-01-14T03:33:50.267Z,18.23
2018-01-14T03:36:18.609Z,21.07
2018-01-14T03:38:46.139Z,18.43
2018-01-14T03:41:13.932Z,19.63
2018-01-14T03:43:42.233Z,17.87
2018-01-14T03:46:09.808Z,23.77
2018-01-14T03:48:37.361Z,22.60
2018-01-14T03:51:05.055Z,18.80
2018-01-14T03:53:32.644Z,15.83
2018-01-14T03:56:00.207Z,18.40
2018-01-14T03:58:28.548Z,20.47
2018-01-14T04:00:56.090Z,15.57
2018-01-14T04:03:24.043Z,17.30
2018-01-14T04:05:51.612Z,17.40
2018-01-14T04:08:20.025Z,20.13
2018-01-14T04:10:47.945Z,13.77
2018-01-14T04:13:15.487Z,18.37
2018-01-14T04:15:43.027Z,22.07
2018-01-14T04:18:10.606Z,20.13
2018-01-14T04:20:38.180Z,22.07
2018-01-14T04:23:05.781Z,22.87
2018-01-14T04:25:33.551Z,17.83
2018-01-14T04:28:01.112Z,22.57
2018-01-14T04:30:28.655Z,23.60
2018-01-14T04:32:56.230Z,22.23
2018-01-14T04:35:24.568Z,16.73
2018-01-14T04:37:52.107Z,25.20
2018-01-14T04:40:19.708Z,21.43
2018-01-14T04:42:47.284Z,26.90
2018-01-14T04:45:14.874Z,25.50
2018-01-14T04:47:43.287Z,25.33
2018-01-14T04:50:10.864Z,25.73
2018-01-14T04:52:38.604Z,25.83
2018-01-14T04:55:06.204Z,26.03
2018-01-14T04:57:33.761Z,29.10
2018-01-14T05:00:02.156Z,22.13
2018-01-14T05:02:30.104Z,26.70
2018-01-14T05:04:57.648Z,27.20
2018-01-14T05:07:25.170Z,25.47
2018-01-14T05:09:52.808Z,23.30
2018-01-14T05:12:20.338Z,24.70
2018-01-14T05:14:47.879Z,19.57
2018-01-14T05:17:15.477Z,23.80
2018-01-14T05:19:43.053Z,23.83
2018-01-14T05:22:10.655Z,22.57
2018-01-14T05:24:38.398Z,23.17
2018-01-14T05:27:05.943Z,28.33
2018-01-14T05:29:33.529Z,21.47
2018-01-14T05:32:01.372Z,20.87
2018-01-14T05:34:28.953Z,22.47
2018-01-14T05:36:56.616Z,24.67
2018-01-14T05:39:24.182Z,24.23
2018-01-14T05:41:51.758Z,27.03
2018-01-14T05:44:19.308Z,23.83
2018-01-14T05:46:46.917Z,27.27
2018-01-14T05:49:14.492Z,28.80
2018-01-14T05:51:42.027Z,28.37
2018-01-14T05:54:10.638Z,26.50
2018-01-14T05:56:38.209Z,33.07
2018-01-14T05:59:05.780Z,33.47
2018-01-14T06:01:34.348Z,31.43
2018-01-14T06:04:02.646Z,28.83
2018-01-14T06:06:30.173Z,26.27
2018-01-14T06:08:58.035Z,26.77
2018-01-14T06:11:25.552Z,33.63
2018-01-14T06:13:53.849Z,30.53
2018-01-14T06:16:21.618Z,37.23
2018-01-14T06:18:49.138Z,29.33
2018-01-14T06:21:16.606Z,29.47
2018-01-14T06:23:44.204Z,27.10
2018-01-14T06:26:11.781Z,25.93
2018-01-14T06:28:39.443Z,34.00
2018-01-14T06:31:07.196Z,26.50
2018-01-14T06:33:34.769Z,31.73
2018-01-14T06:36:03.087Z,27.90
2018-01-14T06:38:30.680Z,31.07
2018-01-14T06:40:59.020Z,34.07
2018-01-14T06:43:26.559Z,32.63
2018-01-14T06:45:54.331Z,29.70
2018-01-14T06:48:22.642Z,31.33
2018-01-14T06:50:50.180Z,38.17
2018-01-14T06:53:17.713Z,34.53
2018-01-14T06:55:45.287Z,28.07
2018-01-14T06:58:12.861Z,32.70
2018-01-14T07:00:40.493Z,28.13
2018-01-14T07:03:08.067Z,35.43
2018-01-14T07:05:35.603Z,27.80
2018-01-14T07:08:04.164Z,36.30
2018-01-14T07:10:32.420Z,27.83
2018-01-14T07:12:59.963Z,31.33
2018-01-14T07:15:28.262Z,27.73
2018-01-14T07:17:55.793Z,30.27
2018-01-14T07:20:23.368Z,27.77
2018-01-14T07:22:50.939Z,30.43
2018-01-14T07:25:18.612Z,29.13
2018-01-14T07:27:46.995Z,27.40
2018-01-14T07:30:14.612Z,32.77
2018-01-14T07:32:42.155Z,34.57
2018-01-14T07:35:09.724Z,25.80
2018-01-14T07:37:37.311Z,27.87
2018-01-14T07:40:04.871Z,28.50
2018-01-14T07:42:32.410Z,34.70
2018-01-14T07:45:00.023Z,28.27
2018-01-14T07:47:28.268Z,31.23
2018-01-14T07:49:55.844Z,31.93
2018-01-14T07:52:23.444Z,31.50
2018-01-14T07:54:50.985Z,31.03
2018-01-14T07:57:18.530Z,26.90
2018-01-14T07:59:46.420Z,27.37
2018-01-14T08:02:13.963Z,31.30
2018-01-14T08:04:42.267Z,26.87
2018-01-14T08:07:10.035Z,33.97
2018-01-14T08:09:37.572Z,33.63
2018-01-14T08:12:05.107Z,32.97
2018-01-14T08:14:32.871Z,32.03
2018-01-14T08:17:00.440Z,32.17
2018-01-14T08:19:28.767Z,31.67
2018-01-14T08:21:56.323Z,25.90
2018-01-14T08:24:23.900Z,31.37
2018-01-14T08:26:52.208Z,29.23
2018-01-14T08:29:19.912Z,33.07
2018-01-14T08:31:48.215Z,29.83
2018-01-14T08:34:15.790Z,34.10
2018-01-14T08:36:43.518Z,30.40
2018-01-14T08:39:11.101Z,35.63
2018-01-14T08:49:44.528Z,33.23
2018-01-14T08:52:12.186Z,36.23
2018-01-14T08:54:39.722Z,39.07
2018-01-14T08:57:07.590Z,38.73
2018-01-14T08:59:35.156Z,35.83
2018-01-14T09:02:02.720Z,39.93
2018-01-14T09:04:31.117Z,43.27
2018-01-14T09:06:58.696Z,41.73
2018-01-14T09:09:26.236Z,46.70
2018-01-14T09:11:53.787Z,45.13
2018-01-14T09:14:21.409Z,45.00
2018-01-14T09:16:48.935Z,44.80
2018-01-14T09:19:16.441Z,46.63
2018-01-14T09:21:44.739Z,49.23
2018-01-14T09:24:12.272Z,51.50
2018-01-14T09:26:39.867Z,50.80
2018-01-14T09:29:07.440Z,45.80
2018-01-14T09:31:35.758Z,49.07
2018-01-14T09:34:03.675Z,48.07
2018-01-14T09:36:31.207Z,46.83
2018-01-14T09:38:58.812Z,46.30
2018-01-14T09:41:26.489Z,46.57
2018-01-14T09:43:54.902Z,49.03
2018-01-14T09:46:22.541Z,47.83
2018-01-14T09:48:50.191Z,47.20
2018-01-14T09:51:17.731Z,47.20
2018-01-14T09:53:45.272Z,44.53
2018-01-14T09:56:12.868Z,49.53
2018-01-14T09:58:41.392Z,45.03
2018-01-14T10:01:08.921Z,49.87
2018-01-14T10:03:36.512Z,50.97
2018-01-14T10:06:04.043Z,49.70
2018-01-14T10:08:31.515Z,53.37
2018-01-14T10:10:59.819Z,52.50
2018-01-14T10:13:27.348Z,48.87
2018-01-14T10:15:54.904Z,48.23
2018-01-14T10:36:17.909Z,43.30
2018-01-14T10:42:09.100Z,47.93
2018-01-14T10:44:37.405Z,49.93
2018-01-14T10:47:05.033Z,47.53
2018-01-14T10:49:32.597Z,47.90
2018-01-14T10:52:00.135Z,50.50
2018-01-14T10:54:27.771Z,47.77
2018-01-14T10:56:55.335Z,54.43
2018-01-14T10:59:23.166Z,50.83
2018-01-14T11:01:50.703Z,48.73
2018-01-14T11:04:18.692Z,49.97
2018-01-14T11:06:46.225Z,52.47
2018-01-14T11:09:13.768Z,50.50
2018-01-14T11:11:41.576Z,56.37
2018-01-14T11:14:09.154Z,49.30
2018-01-14T11:16:36.689Z,49.37
2018-01-14T11:19:04.293Z,48.67
2018-01-14T11:21:31.864Z,50.60
2018-01-14T11:23:59.401Z,48.87
2018-01-14T11:26:27.017Z,50.97
2018-01-14T11:28:54.591Z,51.13
2018-01-14T11:31:22.160Z,48.03
2018-01-14T11:33:49.979Z,48.40
2018-01-14T11:36:17.566Z,48.10
2018-01-14T11:38:45.136Z,47.80
2018-01-14T11:41:12.728Z,42.83
2018-01-14T11:43:40.280Z,44.67
2018-01-14T11:46:07.856Z,40.47
2018-01-14T11:48:35.462Z,41.87
2018-01-14T11:51:03.046Z,41.43
2018-01-14T11:53:30.578Z,36.77
2018-01-14T11:55:59.154Z,34.93
2018-01-14T11:58:27.497Z,36.83
2018-01-14T12:00:55.035Z,33.07
2018-01-14T12:03:22.564Z,39.80
2018-01-14T12:05:50.103Z,38.77
2018-01-14T12:08:17.657Z,38.30
2018-01-14T12:10:45.264Z,37.60
2018-01-14T12:13:13.567Z,37.60
2018-01-14T12:15:41.144Z,38.50
2018-01-14T12:18:08.699Z,39.63
2018-01-14T12:20:36.274Z,38.30
2018-01-14T12:23:03.842Z,42.77
2018-01-14T12:25:31.437Z,45.57
2018-01-14T12:27:59.776Z,39.60
2018-01-14T12:30:27.303Z,40.13
2018-01-14T12:33:08.815Z,40.23
2018-01-14T12:35:37.115Z,42.10
2018-01-14T12:38:04.658Z,36.60
2018-01-14T12:40:32.260Z,34.43
2018-01-14T12:43:00.608Z,35.40
2018-01-14T12:45:28.180Z,30.93
2018-01-14T12:47:56.548Z,31.40
2018-01-14T12:50:24.847Z,31.77
2018-01-14T12:52:52.422Z,29.43
2018-01-14T12:55:20.181Z,30.67
2018-01-14T12:57:47.724Z,38.13
2018-01-14T13:00:15.399Z,35.57
2018-01-14T13:02:43.280Z,32.03
2018-01-14T13:05:10.880Z,31.73
2018-01-14T13:07:39.215Z,31.13
2018-01-14T13:10:06.861Z,31.73
2018-01-14T13:12:34.432Z,34.77
2018-01-14T13:15:02.737Z,35.07
2018-01-14T13:17:30.406Z,35.43
2018-01-14T13:19:57.988Z,33.30
2018-01-14T13:22:26.328Z,29.23
2018-01-14T13:24:54.098Z,33.37
2018-01-14T13:27:22.428Z,31.77
2018-01-14T13:29:49.963Z,34.07
2018-01-14T13:32:17.686Z,30.23
2018-01-14T13:34:45.252Z,33.70
2018-01-14T13:37:12.788Z,27.67
2018-01-14T13:39:40.505Z,34.73
2018-01-14T13:42:08.073Z,28.77
2018-01-14T13:44:35.721Z,33.60
2018-01-14T13:47:03.279Z,28.23
2018-01-14T13:49:30.848Z,30.33
2018-01-14T13:51:59.193Z,32.93
2018-01-14T13:54:26.729Z,30.43
2018-01-14T13:56:54.233Z,28.67
2018-01-14T13:59:21.800Z,31.73
2018-01-14T14:01:49.696Z,31.23
2018-01-14T14:04:18.010Z,32.80
2018-01-14T14:06:45.581Z,31.93
2018-01-14T14:09:13.154Z,31.97
2018-01-14T14:11:40.711Z,30.17
2018-01-14T14:14:08.317Z,33.20
2018-01-14T14:16:35.940Z,30.07
2018-01-14T14:19:03.529Z,34.43
2018-01-14T14:21:31.863Z,36.47
2018-01-14T14:23:59.430Z,31.77
2018-01-14T14:26:27.672Z,31.73
2018-01-14T14:28:55.400Z,31.33
2018-01-14T14:31:23.155Z,28.63
2018-01-14T14:33:50.700Z,30.63
2018-01-14T14:36:18.273Z,31.97
2018-01-14T14:38:46.956Z,28.07
2018-01-14T14:41:14.651Z,30.70
2018-01-14T14:43:42.229Z,30.93
2018-01-14T14:46:10.014Z,29.93
2018-01-14T14:48:37.587Z,27.03
2018-01-14T14:51:05.139Z,27.33
2018-01-14T14:53:32.933Z,28.60
2018-01-14T14:56:01.273Z,26.40
2018-01-14T14:58:29.027Z,32.60
2018-01-14T15:00:56.630Z,28.50
2018-01-14T15:03:24.284Z,28.40
2018-01-14T15:05:51.819Z,30.87
2018-01-14T15:08:19.362Z,27.03
2018-01-14T15:10:46.928Z,26.83
2018-01-14T15:13:14.556Z,28.90
2018-01-14T15:15:42.205Z,29.83
2018-01-14T15:18:09.778Z,32.57
2018-01-14T15:20:37.313Z,29.57
2018-01-14T15:23:04.916Z,28.50
2018-01-14T15:25:32.521Z,30.53
2018-01-14T15:28:00.839Z,32.03
2018-01-14T15:30:28.448Z,29.50
2018-01-14T15:32:56.045Z,29.57
2018-01-14T15:35:23.582Z,27.73
2018-01-14T15:37:51.323Z,31.63
2018-01-14T15:40:18.880Z,30.03
2018-01-14T15:42:46.410Z,29.27
2018-01-14T15:45:14.037Z,30.27
2018-01-14T15:47:41.597Z,29.80
2018-01-14T15:50:09.160Z,23.90
2018-01-14T15:52:36.708Z,27.27
2018-01-14T15:55:04.306Z,30.70
2018-01-14T15:57:31.841Z,31.17
2018-01-14T15:59:59.681Z,30.27
2018-01-14T16:02:28.021Z,34.43
2018-01-14T16:04:55.606Z,29.83
2018-01-14T16:07:23.273Z,32.67
2018-01-14T16:09:50.841Z,30.83
2018-01-14T16:12:19.198Z,31.37
2018-01-14T16:14:47.005Z,27.80
2018-01-14T16:17:14.576Z,27.77
2018-01-14T16:19:42.807Z,27.30
2018-01-14T16:22:10.640Z,26.67
2018-01-14T16:24:38.226Z,32.13
2018-01-14T16:27:05.805Z,31.00
2018-01-14T16:29:33.388Z,30.67
2018-01-14T16:32:00.961Z,27.17
2018-01-14T16:34:28.499Z,30.97
2018-01-14T16:36:56.465Z,29.93
2018-01-14T16:39:24.022Z,31.77
2018-01-14T16:41:51.497Z,31.73
2018-01-14T16:44:20.169Z,31.13
2018-01-14T16:46:48.541Z,30.67
2018-01-14T16:49:16.080Z,31.33
2018-01-14T16:51:44.408Z,30.23
2018-01-14T16:54:11.980Z,29.23
2018-01-14T16:56:40.285Z,29.17
2018-01-14T16:59:07.898Z,30.13
2018-01-14T17:01:35.435Z,30.67
2018-01-14T17:04:03.739Z,28.37
2018-01-14T17:06:31.748Z,29.17
2018-01-14T17:09:00.091Z,28.90
2018-01-14T17:11:27.634Z,33.27
2018-01-14T17:13:56.164Z,32.03
2018-01-14T17:16:23.737Z,30.17
2018-01-14T17:18:51.286Z,30.67
2018-01-14T17:21:18.847Z,32.27
2018-01-14T17:23:47.181Z,29.33
2018-01-14T17:26:14.702Z,30.27
2018-01-14T17:28:42.300Z,32.53
2018-01-14T17:31:10.645Z,30.03
2018-01-14T17:33:38.250Z,31.70
2018-01-14T17:36:05.850Z,29.37
2018-01-14T17:38:34.144Z,27.90
2018-01-14T17:41:01.687Z,32.50
2018-01-14T17:43:29.403Z,32.83
2018-01-14T17:45:57.843Z,30.23
2018-01-14T17:48:25.375Z,30.10
2018-01-14T17:50:53.031Z,32.17
2018-01-14T17:53:20.609Z,29.67
2018-01-14T17:55:48.180Z,29.40
2018-01-14T17:58:15.893Z,30.47
2018-01-14T18:00:44.265Z,31.53
2018-01-14T18:03:11.799Z,32.00
2018-01-14T18:05:40.137Z,28.50
2018-01-14T18:08:07.735Z,32.87
2018-01-14T18:10:35.313Z,31.00
2018-01-14T18:13:03.280Z,33.43
2018-01-14T18:15:30.857Z,33.03
2018-01-14T18:17:58.391Z,30.47
2018-01-14T18:20:25.988Z,32.97
2018-01-14T18:22:53.519Z,32.03
2018-01-14T18:25:21.095Z,36.10
2018-01-14T18:27:48.663Z,32.00
2018-01-14T18:30:16.203Z,35.50
2018-01-14T18:32:43.681Z,32.87
2018-01-14T18:35:11.467Z,34.77
2018-01-14T18:37:39.805Z,36.93
2018-01-14T18:40:07.344Z,35.87
2018-01-14T18:42:34.936Z,36.80
2018-01-14T18:45:02.533Z,31.47
2018-01-14T18:47:30.109Z,35.47
2018-01-14T18:49:58.438Z,34.90
2018-01-14T18:52:26.016Z,35.43
2018-01-14T18:54:54.321Z,32.53
2018-01-14T18:57:22.087Z,34.53
2018-01-14T18:59:49.614Z,35.13
2018-01-14T19:02:17.150Z,33.77
2018-01-14T19:04:44.854Z,37.73
2018-01-14T19:07:12.383Z,33.13
2018-01-14T19:09:40.003Z,32.60
2018-01-14T19:12:07.939Z,32.07
2018-01-14T19:14:36.239Z,35.13
2018-01-14T19:17:03.780Z,33.43
2018-01-14T19:19:31.282Z,35.10
2018-01-14T19:21:59.612Z,32.43
2018-01-14T19:24:27.152Z,29.40
2018-01-14T19:26:55.003Z,36.97
2018-01-14T19:29:22.620Z,34.23
2018-01-14T19:31:50.241Z,36.93
2018-01-14T19:34:17.815Z,35.70
2018-01-14T19:36:45.456Z,34.63
2018-01-14T19:39:13.034Z,36.70
2018-01-14T19:41:40.626Z,36.23
2018-01-14T19:44:08.155Z,37.23
2018-01-14T19:46:35.789Z,39.50
2018-01-14T19:49:04.279Z,42.33
2018-01-14T19:51:31.851Z,37.70
2018-01-14T19:53:59.432Z,34.73
2018-01-14T19:56:27.966Z,35.53
2018-01-14T19:58:55.503Z,39.93
2018-01-14T20:01:23.158Z,38.23
2018-01-14T20:03:51.161Z,36.57
2018-01-14T20:06:19.495Z,36.37
2018-01-14T20:08:48.478Z,44.23
2018-01-14T20:11:16.374Z,42.67
2018-01-14T20:13:44.036Z,42.67
2018-01-14T20:16:11.603Z,38.43
2018-01-14T20:18:39.497Z,36.07
2018-01-14T20:21:07.786Z,38.90
2018-01-14T20:23:35.365Z,38.67
2018-01-14T20:26:03.921Z,40.28
2018-01-14T20:28:31.455Z,42.30
2018-01-14T20:30:59.036Z,41.70
2018-01-14T20:33:26.772Z,41.07
2018-01-14T20:35:54.287Z,39.53
2018-01-14T20:38:21.857Z,37.80
2018-01-14T20:40:49.659Z,39.77
2018-01-14T20:43:17.216Z,40.90
2018-01-14T20:45:44.789Z,38.60
2018-01-14T20:48:12.484Z,37.17
2018-01-14T20:50:40.055Z,38.80
2018-01-14T20:53:07.609Z,40.17
2018-01-14T20:55:35.278Z,41.87
2018-01-14T20:58:02.814Z,35.37
2018-01-14T21:00:30.343Z,41.57
2018-01-14T21:02:58.145Z,38.90
2018-01-14T21:05:26.475Z,36.53
2018-01-14T21:07:54.013Z,43.00
2018-01-14T21:10:21.793Z,38.30
2018-01-14T21:12:50.383Z,40.20
